createdAt,value
2019-01-26T00:00:00.256Z,1.40
2019-01-26T00:02:59.518Z,1.30
2019-01-26T00:05:58.531Z,1.50
2019-01-26T00:08:57.948Z,1.60
2019-01-26T00:11:57.080Z,1.50
2019-01-26T00:14:56.055Z,1.60
2019-01-26T00:17:55.352Z,1.60
2019-01-26T00:20:54.415Z,1.60
2019-01-26T00:23:53.529Z,1.50
2019-01-26T00:26:52.572Z,1.60
2019-01-26T00:29:51.824Z,1.60
2019-01-26T00:32:50.887Z,1.70
2019-01-26T00:35:50.085Z,1.80
2019-01-26T00:38:49.235Z,1.90
2019-01-26T00:41:48.250Z,1.90
2019-01-26T00:44:47.439Z,2.00
2019-01-26T00:47:46.692Z,2.10
2019-01-26T00:50:45.952Z,2.30
2019-01-26T00:53:45.332Z,2.30
2019-01-26T00:56:44.730Z,2.40
2019-01-26T00:59:44.069Z,2.40
2019-01-26T01:02:43.044Z,2.40
2019-01-26T01:05:42.566Z,2.50
2019-01-26T01:08:41.888Z,2.60
2019-01-26T01:11:41.371Z,2.60
2019-01-26T01:14:40.455Z,2.80
2019-01-26T01:17:39.615Z,2.80
2019-01-26T01:20:39.539Z,2.80
2019-01-26T01:23:38.811Z,2.90
2019-01-26T01:26:38.006Z,3.00
2019-01-26T01:29:38.040Z,3.00
2019-01-26T01:32:37.934Z,3.00
2019-01-26T01:35:37.294Z,3.00
2019-01-26T01:38:36.573Z,3.00
2019-01-26T01:41:35.676Z,3.00
2019-01-26T01:44:34.854Z,3.00
2019-01-26T01:47:33.977Z,3.10
2019-01-26T01:50:33.224Z,3.10
2019-01-26T01:53:32.626Z,3.10
2019-01-26T01:56:31.881Z,3.20
2019-01-26T01:59:31.093Z,3.20
2019-01-26T02:02:30.503Z,3.30
2019-01-26T02:05:30.459Z,3.30
2019-01-26T02:08:30.568Z,3.30
2019-01-26T02:11:29.710Z,3.30
2019-01-26T02:14:28.796Z,3.40
2019-01-26T02:17:28.331Z,3.30
2019-01-26T02:20:28.146Z,3.30
2019-01-26T02:23:27.536Z,3.50
2019-01-26T02:26:26.753Z,3.40
2019-01-26T02:29:25.899Z,3.40
2019-01-26T02:32:25.100Z,3.40
2019-01-26T02:35:24.265Z,3.50
2019-01-26T02:38:24.229Z,3.40
2019-01-26T02:41:23.369Z,3.50
2019-01-26T02:44:22.545Z,3.50
2019-01-26T02:47:21.856Z,3.60
2019-01-26T02:50:21.790Z,3.60
2019-01-26T02:53:21.125Z,3.60
2019-01-26T02:56:20.422Z,3.60
2019-01-26T02:59:19.499Z,3.60
2019-01-26T03:02:18.679Z,3.70
2019-01-26T03:05:18.304Z,3.70
2019-01-26T03:08:18.304Z,3.70
2019-01-26T03:11:17.669Z,3.70
2019-01-26T03:14:16.743Z,3.70
2019-01-26T03:17:15.851Z,3.80
2019-01-26T03:20:15.093Z,3.90
2019-01-26T03:23:14.281Z,4.00
2019-01-26T03:26:13.353Z,4.00
2019-01-26T03:29:12.612Z,4.00
2019-01-26T03:32:11.852Z,4.10
2019-01-26T03:35:11.199Z,4.10
2019-01-26T03:38:11.215Z,4.20
2019-01-26T03:41:10.582Z,4.30
2019-01-26T03:44:09.924Z,4.30
2019-01-26T03:47:13.647Z,4.30
2019-01-26T03:50:10.202Z,4.30
2019-01-26T03:53:09.267Z,4.40
2019-01-26T03:56:08.676Z,4.40
2019-01-26T03:59:07.630Z,4.40
2019-01-26T04:02:06.686Z,4.50
2019-01-26T04:05:05.849Z,4.40
2019-01-26T04:08:04.926Z,4.50
2019-01-26T04:11:04.169Z,4.60
2019-01-26T04:14:03.356Z,4.60
2019-01-26T04:17:02.867Z,4.50
2019-01-26T04:20:01.973Z,4.60
2019-01-26T04:23:01.976Z,4.50
2019-01-26T04:26:02.036Z,4.60
2019-01-26T04:29:01.219Z,4.60
2019-01-26T04:32:00.650Z,4.60
2019-01-26T04:35:00.011Z,4.60
2019-01-26T04:37:59.066Z,4.60
2019-01-26T04:40:58.520Z,4.60
2019-01-26T04:43:57.620Z,4.70
2019-01-26T04:46:56.881Z,4.60
2019-01-26T04:49:56.220Z,4.70
2019-01-26T04:52:55.446Z,4.70
2019-01-26T04:55:54.667Z,4.70
2019-01-26T04:58:53.950Z,4.80
2019-01-26T05:01:53.305Z,4.80
2019-01-26T05:04:52.483Z,4.70
2019-01-26T05:07:51.902Z,4.70
2019-01-26T05:10:51.872Z,4.70
2019-01-26T05:13:51.008Z,4.80
2019-01-26T05:16:50.267Z,4.90
2019-01-26T05:19:49.545Z,4.90
2019-01-26T05:22:48.664Z,4.90
2019-01-26T05:25:47.827Z,4.90
2019-01-26T05:28:47.182Z,4.90
2019-01-26T05:31:46.668Z,5.00
2019-01-26T05:34:45.721Z,4.90
2019-01-26T05:37:44.976Z,5.00
2019-01-26T05:40:44.095Z,5.00
2019-01-26T05:43:43.211Z,5.00
2019-01-26T05:46:42.450Z,5.00
2019-01-26T05:49:41.540Z,4.90
2019-01-26T05:52:41.067Z,4.90
2019-01-26T05:55:40.089Z,5.00
2019-01-26T05:58:39.341Z,5.00
2019-01-26T06:01:38.339Z,5.00
2019-01-26T06:04:38.419Z,5.00
2019-01-26T06:07:37.611Z,5.00
2019-01-26T06:10:36.802Z,5.00
2019-01-26T06:13:35.889Z,5.00
2019-01-26T06:16:34.999Z,5.00
2019-01-26T06:19:34.270Z,5.10
2019-01-26T06:22:33.444Z,5.10
2019-01-26T06:25:32.835Z,5.00
2019-01-26T06:28:31.978Z,5.00
2019-01-26T06:31:32.177Z,5.10
2019-01-26T06:34:31.430Z,5.20
2019-01-26T06:37:30.826Z,5.00
2019-01-26T06:40:30.705Z,5.10
2019-01-26T06:43:29.754Z,5.20
2019-01-26T06:46:28.881Z,5.20
2019-01-26T06:49:29.019Z,5.20
2019-01-26T06:52:28.176Z,5.30
2019-01-26T06:55:27.473Z,5.30
2019-01-26T06:58:26.564Z,5.30
2019-01-26T07:01:26.793Z,5.20
2019-01-26T07:04:28.034Z,5.40
2019-01-26T07:07:27.344Z,5.40
2019-01-26T07:10:26.434Z,5.40
2019-01-26T07:13:25.600Z,5.40
2019-01-26T07:16:25.401Z,5.50
2019-01-26T07:19:25.157Z,5.60
2019-01-26T07:22:24.304Z,5.70
2019-01-26T07:25:23.395Z,5.70
2019-01-26T07:28:22.774Z,5.80
2019-01-26T07:31:22.152Z,5.80
2019-01-26T07:34:21.328Z,5.80
2019-01-26T07:37:20.641Z,5.80
2019-01-26T07:40:20.012Z,5.70
2019-01-26T07:43:19.158Z,5.80
2019-01-26T07:46:18.703Z,5.70
2019-01-26T07:49:18.000Z,5.80
2019-01-26T07:52:17.315Z,5.80
2019-01-26T07:55:16.478Z,5.70
2019-01-26T07:58:15.952Z,5.80
2019-01-26T08:01:15.452Z,5.70
2019-01-26T08:04:14.824Z,5.80
2019-01-26T08:07:14.076Z,5.80
2019-01-26T08:10:17.435Z,5.80
2019-01-26T08:13:16.600Z,5.80
2019-01-26T08:16:15.929Z,5.80
2019-01-26T08:19:15.013Z,5.70
2019-01-26T08:22:14.269Z,5.70
2019-01-26T08:25:13.405Z,5.80
2019-01-26T08:28:12.598Z,5.80
2019-01-26T08:31:12.054Z,5.80
2019-01-26T08:34:11.181Z,5.70
2019-01-26T08:37:10.239Z,5.80
2019-01-26T08:40:09.771Z,5.70
2019-01-26T08:43:08.869Z,5.70
2019-01-26T08:46:08.399Z,5.70
2019-01-26T08:49:08.822Z,5.80
2019-01-26T08:52:08.373Z,5.80
2019-01-26T08:55:08.355Z,5.80
2019-01-26T08:58:07.804Z,5.90
2019-01-26T09:00:54.179Z,5.90
2019-01-26T09:04:20.077Z,5.90
2019-01-26T09:07:19.906Z,5.90
2019-01-26T09:10:18.975Z,5.80
2019-01-26T09:13:18.133Z,5.80
2019-01-26T09:16:17.377Z,5.80
2019-01-26T09:19:17.728Z,5.80
2019-01-26T09:22:17.030Z,5.90
2019-01-26T09:25:16.216Z,5.90
2019-01-26T09:28:15.628Z,5.90
2019-01-26T09:31:14.860Z,5.90
2019-01-26T09:34:14.462Z,5.90
2019-01-26T09:37:13.517Z,5.90
2019-01-26T09:40:12.738Z,5.90
2019-01-26T09:43:11.915Z,5.90
2019-01-26T09:46:11.251Z,6.00
2019-01-26T09:49:10.670Z,6.00
2019-01-26T09:52:09.844Z,6.00
2019-01-26T09:55:09.006Z,6.00
2019-01-26T09:58:08.432Z,6.00
2019-01-26T10:01:07.831Z,6.00
2019-01-26T10:04:07.063Z,6.00
2019-01-26T10:07:06.347Z,6.00
2019-01-26T10:10:05.565Z,6.10
2019-01-26T10:13:04.893Z,6.00
2019-01-26T10:16:04.104Z,6.10
2019-01-26T10:19:03.455Z,6.00
2019-01-26T10:22:02.926Z,6.10
2019-01-26T10:25:02.782Z,6.10
2019-01-26T10:28:01.882Z,6.10
2019-01-26T10:31:01.328Z,6.10
2019-01-26T10:34:00.569Z,6.10
2019-01-26T10:37:01.153Z,6.20
2019-01-26T10:40:01.492Z,6.10
2019-01-26T10:43:01.275Z,6.10
2019-01-26T10:46:01.016Z,6.10
2019-01-26T10:49:01.364Z,6.10
2019-01-26T10:52:01.534Z,6.20
2019-01-26T10:55:01.672Z,6.10
2019-01-26T10:58:02.052Z,6.20
2019-01-26T11:01:02.207Z,6.20
2019-01-26T11:04:02.494Z,6.20
2019-01-26T11:07:01.868Z,6.20
2019-01-26T11:10:02.139Z,6.20
2019-01-26T11:13:01.937Z,6.20
2019-01-26T11:16:01.339Z,6.10
2019-01-26T11:19:00.448Z,6.10
2019-01-26T11:21:59.693Z,6.10
2019-01-26T11:24:58.662Z,6.00
2019-01-26T11:27:58.013Z,6.10
2019-01-26T11:30:57.262Z,6.00
2019-01-26T11:33:56.443Z,6.10
2019-01-26T11:36:55.773Z,6.10
2019-01-26T11:39:56.942Z,6.10
2019-01-26T11:42:56.994Z,6.10
2019-01-26T11:46:16.034Z,6.10
2019-01-26T11:49:19.407Z,6.10
2019-01-26T11:52:18.773Z,6.00
2019-01-26T11:55:22.674Z,6.00
2019-01-26T11:58:21.923Z,6.00
2019-01-26T12:01:41.633Z,6.00
2019-01-26T12:04:47.152Z,6.10
2019-01-26T12:07:46.354Z,6.00
2019-01-26T12:10:45.558Z,6.00
2019-01-26T12:13:44.687Z,6.10
2019-01-26T12:16:43.995Z,6.00
2019-01-26T12:19:44.126Z,6.00
2019-01-26T12:22:43.538Z,6.10
2019-01-26T12:25:43.117Z,6.10
2019-01-26T12:28:42.988Z,6.10
2019-01-26T12:31:42.474Z,6.10
2019-01-26T12:34:42.469Z,6.10
2019-01-26T12:37:41.596Z,6.10
2019-01-26T12:40:41.044Z,6.20
2019-01-26T12:43:40.248Z,6.00
2019-01-26T12:46:39.605Z,6.10
2019-01-26T12:49:38.831Z,6.10
2019-01-26T12:52:38.259Z,6.00
2019-01-26T12:55:37.390Z,6.10
2019-01-26T12:58:36.763Z,6.00
2019-01-26T13:01:36.799Z,6.10
2019-01-26T13:07:19.212Z,6.10
2019-01-26T13:10:18.498Z,6.10
2019-01-26T13:13:21.513Z,6.10
2019-01-26T13:16:20.764Z,6.10
2019-01-26T13:19:20.953Z,6.10
2019-01-26T13:22:21.172Z,6.00
2019-01-26T13:25:20.552Z,5.90
2019-01-26T13:28:19.724Z,5.90
2019-01-26T13:31:19.073Z,6.00
2019-01-26T13:34:18.305Z,6.00
2019-01-26T13:37:17.714Z,6.00
2019-01-26T13:40:17.169Z,6.00
2019-01-26T13:43:16.509Z,6.00
2019-01-26T13:46:16.664Z,6.00
2019-01-26T13:49:16.003Z,6.00
2019-01-26T13:52:15.909Z,5.90
2019-01-26T13:55:15.883Z,6.00
2019-01-26T13:58:15.570Z,6.10
2019-01-26T14:01:15.573Z,6.00
2019-01-26T14:04:15.728Z,6.00
2019-01-26T14:07:15.879Z,6.00
2019-01-26T14:10:15.764Z,6.00
2019-01-26T14:13:15.989Z,6.00
2019-01-26T14:16:16.553Z,6.00
2019-01-26T14:19:16.830Z,5.90
2019-01-26T14:22:16.528Z,5.90
2019-01-26T14:25:16.604Z,6.00
2019-01-26T14:28:15.658Z,6.00
2019-01-26T14:31:15.802Z,6.00
2019-01-26T14:34:15.937Z,5.90
2019-01-26T14:37:15.309Z,6.00
2019-01-26T14:40:14.628Z,5.90
2019-01-26T14:43:13.929Z,5.90
2019-01-26T14:46:13.088Z,6.00
2019-01-26T14:49:12.647Z,6.00
2019-01-26T14:52:11.890Z,5.90
2019-01-26T14:55:11.937Z,5.90
2019-01-26T14:58:12.044Z,5.90
2019-01-26T15:01:11.422Z,6.00
2019-01-26T15:04:11.374Z,6.00
2019-01-26T15:07:11.598Z,6.00
2019-01-26T15:10:11.027Z,6.00
2019-01-26T15:13:10.607Z,6.00
2019-01-26T15:16:10.885Z,5.90
2019-01-26T15:19:11.014Z,5.90
2019-01-26T15:22:10.328Z,5.90
2019-01-26T15:25:09.379Z,5.90
2019-01-26T15:28:09.747Z,5.80
2019-01-26T15:31:09.267Z,5.90
2019-01-26T15:34:09.331Z,5.90
2019-01-26T15:37:08.678Z,5.90
2019-01-26T15:40:07.832Z,5.90
2019-01-26T15:43:07.274Z,5.90
2019-01-26T15:46:07.335Z,5.90
2019-01-26T15:49:06.595Z,5.90
2019-01-26T15:52:05.704Z,6.00
2019-01-26T15:55:05.775Z,6.00
2019-01-26T15:58:05.714Z,6.00
2019-01-26T16:01:05.614Z,6.00
2019-01-26T16:04:04.822Z,6.00
2019-01-26T16:07:04.726Z,5.90
2019-01-26T16:10:03.909Z,5.90
2019-01-26T16:13:03.982Z,6.00
2019-01-26T16:16:03.379Z,6.00
2019-01-26T16:19:03.347Z,6.10
2019-01-26T16:22:02.751Z,6.10
2019-01-26T16:25:01.867Z,6.10
2019-01-26T16:28:01.054Z,6.00
2019-01-26T16:31:01.118Z,6.00
2019-01-26T16:34:00.715Z,6.00
2019-01-26T16:37:00.789Z,6.00
2019-01-26T16:40:00.103Z,6.00
2019-01-26T16:42:59.953Z,6.00
2019-01-26T16:45:59.153Z,6.00
2019-01-26T16:48:59.077Z,5.90
2019-01-26T16:51:59.024Z,5.90
2019-01-26T16:54:58.898Z,5.80
2019-01-26T16:57:58.166Z,5.80
2019-01-26T17:00:57.296Z,5.70
2019-01-26T17:03:56.572Z,5.70
2019-01-26T17:06:56.747Z,5.80
2019-01-26T17:09:56.681Z,5.90
2019-01-26T17:12:56.146Z,5.80
2019-01-26T17:15:55.363Z,5.80
2019-01-26T17:18:54.548Z,5.80
2019-01-26T17:21:53.914Z,5.80
2019-01-26T17:24:53.069Z,5.90
2019-01-26T17:27:52.489Z,5.80
2019-01-26T17:30:51.929Z,5.80
2019-01-26T17:33:50.932Z,5.80
2019-01-26T17:36:50.099Z,5.80
2019-01-26T17:39:49.497Z,5.80
2019-01-26T17:42:49.419Z,5.70
2019-01-26T17:45:48.644Z,5.70
2019-01-26T17:48:47.852Z,5.80
2019-01-26T17:51:32.703Z,5.80
2019-01-26T17:54:17.856Z,5.90
2019-01-26T17:57:04.283Z,5.90
2019-01-26T17:59:48.830Z,5.90
2019-01-26T18:02:33.443Z,6.00
2019-01-26T18:05:18.149Z,5.90
2019-01-26T18:08:03.290Z,5.90
2019-01-26T18:10:48.562Z,5.80
2019-01-26T18:13:34.761Z,5.80
2019-01-26T18:16:20.265Z,5.70
2019-01-26T18:19:05.134Z,5.70
2019-01-26T18:21:50.259Z,5.70
2019-01-26T18:24:35.207Z,5.60
2019-01-26T18:27:19.584Z,5.50
2019-01-26T18:30:11.223Z,5.50
2019-01-26T18:32:56.151Z,5.50
2019-01-26T18:35:40.859Z,5.40
2019-01-26T18:38:25.602Z,5.40
2019-01-26T18:41:10.541Z,5.40
2019-01-26T18:43:55.622Z,5.40
2019-01-26T18:46:40.680Z,5.40
2019-01-26T18:49:25.759Z,5.40
2019-01-26T18:52:10.960Z,5.40
2019-01-26T18:54:56.052Z,5.50
2019-01-26T18:57:41.533Z,5.50
2019-01-26T19:00:31.865Z,5.50
2019-01-26T19:03:26.707Z,5.50
2019-01-26T19:06:11.572Z,5.50
2019-01-26T19:08:56.432Z,5.50
2019-01-26T19:11:41.223Z,5.40
2019-01-26T19:14:26.247Z,5.40
2019-01-26T19:17:11.369Z,5.40
2019-01-26T19:19:56.270Z,5.40
2019-01-26T19:22:41.365Z,5.40
2019-01-26T19:25:26.361Z,5.40
2019-01-26T19:28:11.456Z,5.40
2019-01-26T19:30:55.850Z,5.40
2019-01-26T19:33:40.919Z,5.40
2019-01-26T19:36:26.142Z,5.40
2019-01-26T19:39:11.165Z,5.40
2019-01-26T19:41:56.316Z,5.40
2019-01-26T19:44:41.393Z,5.50
2019-01-26T19:47:26.460Z,5.50
2019-01-26T19:50:21.273Z,5.50
2019-01-26T19:53:07.362Z,5.50
2019-01-26T19:55:52.281Z,5.40
2019-01-26T19:58:37.185Z,5.40
2019-01-26T20:01:22.258Z,5.40
2019-01-26T20:04:07.378Z,5.50
2019-01-26T20:06:53.247Z,5.50
2019-01-26T20:09:38.399Z,5.50
2019-01-26T20:12:23.813Z,5.50
2019-01-26T20:15:17.702Z,5.50
2019-01-26T20:18:03.191Z,5.50
2019-01-26T20:20:47.919Z,5.50
2019-01-26T20:23:32.837Z,5.50
2019-01-26T20:26:17.442Z,5.50
2019-01-26T20:29:03.015Z,5.60
2019-01-26T20:31:48.309Z,5.50
2019-01-26T20:34:33.660Z,5.50
2019-01-26T20:37:18.285Z,5.50
2019-01-26T20:40:07.203Z,5.50
2019-01-26T20:42:52.129Z,5.50
2019-01-26T20:45:37.479Z,5.50
2019-01-26T20:48:22.322Z,5.50
2019-01-26T20:51:07.087Z,5.50
2019-01-26T20:53:52.008Z,5.50
2019-01-26T20:56:37.267Z,5.50
2019-01-26T20:59:22.303Z,5.60
2019-01-26T21:02:07.836Z,5.50
2019-01-26T21:04:52.642Z,5.60
2019-01-26T21:07:38.172Z,5.50
2019-01-26T21:10:25.222Z,5.50
2019-01-26T21:13:16.258Z,5.50
2019-01-26T21:15:57.003Z,5.60
2019-01-26T21:18:41.700Z,5.50
2019-01-26T21:21:31.994Z,5.50
2019-01-26T21:24:12.800Z,5.50
2019-01-26T21:26:57.842Z,5.60
2019-01-26T21:29:42.883Z,5.60
2019-01-26T21:32:28.041Z,5.60
2019-01-26T21:35:13.229Z,5.60
2019-01-26T21:37:58.107Z,5.50
2019-01-26T21:40:43.107Z,5.50
2019-01-26T21:43:28.190Z,5.40
2019-01-26T21:46:13.262Z,5.40
2019-01-26T21:48:57.799Z,5.40
2019-01-26T21:51:42.843Z,5.40
2019-01-26T21:54:28.035Z,5.40
2019-01-26T21:57:13.042Z,5.50
2019-01-26T21:59:58.073Z,5.50
2019-01-26T22:02:43.501Z,5.50
2019-01-26T22:05:28.533Z,5.50
2019-01-26T22:08:13.694Z,5.50
2019-01-26T22:10:58.542Z,5.50
2019-01-26T22:13:43.220Z,5.50
2019-01-26T22:16:28.332Z,5.50
2019-01-26T22:19:13.666Z,5.50
2019-01-26T22:21:58.480Z,5.40
2019-01-26T22:24:43.130Z,5.40
2019-01-26T22:27:28.261Z,5.30
2019-01-26T22:30:19.082Z,5.20
2019-01-26T22:33:03.921Z,5.20
2019-01-26T22:35:48.981Z,5.20
2019-01-26T22:38:35.142Z,5.20
2019-01-26T22:41:20.007Z,5.30
2019-01-26T22:44:04.595Z,5.30
2019-01-26T22:46:49.636Z,5.30
2019-01-26T22:49:34.719Z,5.40
2019-01-26T22:52:19.596Z,5.40
2019-01-26T22:55:09.832Z,5.40
2019-01-26T22:57:55.152Z,5.40
2019-01-26T23:00:53.141Z,5.40
2019-01-26T23:03:41.722Z,5.40
2019-01-26T23:06:41.965Z,5.40
2019-01-26T23:09:30.842Z,5.40
2019-01-26T23:12:37.256Z,5.40
2019-01-26T23:15:37.623Z,5.40
2019-01-26T23:18:38.450Z,5.50
2019-01-26T23:22:00.176Z,5.50
2019-01-26T23:25:12.890Z,5.50
2019-01-26T23:28:10.505Z,5.50
2019-01-26T23:31:14.901Z,5.50
2019-01-26T23:33:59.900Z,5.50
2019-01-26T23:36:44.714Z,5.50
2019-01-26T23:39:29.875Z,5.60
2019-01-26T23:42:14.450Z,5.60
2019-01-26T23:44:59.441Z,5.70
2019-01-26T23:47:44.085Z,5.70
2019-01-26T23:50:28.784Z,5.70
2019-01-26T23:53:14.004Z,5.80
2019-01-26T23:55:58.730Z,5.90
2019-01-26T23:58:43.588Z,5.90
